ADDS METAR Data INFO
IDs: Format: Raw Decoded Include TAF

Data at: 1149 UTC 23 Jun 2018

KPHX 231051Z 00000KT 10SM CLR 30/08 A2968 RMK AO2 SLP029 T03000078 $
KPHX 230951Z 00000KT 10SM CLR 32/07 A2968 RMK AO2 SLP026 T03220067 $
KPHX 230851Z 03003KT 10SM CLR 33/06 A2967 RMK AO2 SLP023 T03330061 53005 $
KPHX 230751Z 30005KT 10SM CLR 35/06 A2966 RMK AO2 SLP020 T03500056 $
KPHX 230651Z 28009KT 10SM CLR 36/06 A2966 RMK AO2 SLP020 T03610056 404390278 $
KPHX 230551Z 26008KT 10SM CLR 37/03 A2966 RMK AO2 SLP018 T03670028 10439 20367 51014 $
KPHX 230451Z 26007KT 10SM CLR 38/M01 A2965 RMK AO2 SLP016 T03781011 $
KPHX 230351Z 25006KT 10SM FEW210 39/M02 A2963 RMK AO2 SLP010 T03891017 $
KPHX 230251Z COR 24005KT 10SM FEW210 41/M03 A2961 RMK AO2 SLP004 T04061028 56008 $
KPHX 230151Z 27012KT 10SM CLR 42/M04 A2962 RMK AO2 SLP005 T04221039 $
KPHX 230051Z 30013KT 10SM CLR 43/M06 A2962 RMK AO2 SLP008 T04331056
KPHX 222351Z 29012G20KT 10SM CLR 43/M04 A2964 RMK AO2 SLP013 T04281044 10439 20378 56027
KPHX 222251Z 28012G18KT 260V340 10SM CLR 43/M03 A2966 RMK AO2 SLP020 T04331028
KPHX 222151Z 27011KT 10SM CLR 43/M03 A2969 RMK AO2 SLP030 T04331033
KPHX 222051Z 22007KT 10SM CLR 42/M06 A2972 RMK AO2 SLP040 T04171061 58023
KPHX 221951Z 26004KT 10SM CLR 41/M04 A2975 RMK AO2 SLP050 T04111039
KPHX 221851Z 19006KT 10SM CLR 41/M02 A2977 RMK AO2 SLP057 T04061017
KPHX 221751Z 16006KT 10SM CLR 39/02 A2979 RMK AO2 SLP065 T03890017 10389 20278 58007
KPHX 221651Z 16008KT 10SM CLR 36/04 A2980 RMK AO2 SLP069 T03610039
KPHX 221551Z 11008KT 10SM CLR 33/03 A2981 RMK AO2 SLP071 T03330033
KPHX 221451Z 09005KT 10SM CLR 31/06 A2981 RMK AO2 SLP072 T03110056 53014
KPHX 221351Z 09007KT 10SM CLR 29/07 A2979 RMK AO2 SLP067 T02890067
KPHX 221251Z 08005KT 10SM CLR 28/06 A2978 RMK AO2 SLP061 T02780056
KPHX 221151Z 12004KT 10SM CLR 28/04 A2977 RMK AO2 SLP058 T02830039 10350 20283 53007
KPHX 221051Z 00000KT 10SM CLR 29/02 A2976 RMK AO2 SLP056 T02940022
KPHX 220951Z 33003KT 10SM CLR 32/02 A2975 RMK AO2 SLP051 T03170017
KPHX 220851Z 27004KT 10SM CLR 33/01 A2975 RMK AO2 SLP050 T03280011 53000
KPHX 220751Z 30009KT 10SM CLR 34/01 A2975 RMK AO2 SLP049 T03440006
KPHX 220651Z 32006KT 10SM CLR 35/01 A2975 RMK AO2 SLP050 T03500011 404330267
KPHX 220551Z 00000KT 10SM CLR 34/00 A2975 RMK AO2 SLP050 T03390000 10433 20339 51008
KPHX 220451Z 24005KT 10SM CLR 36/00 A2974 RMK AO2 SLP049 T03560000
KPHX 220351Z 25006KT 10SM CLR 38/M01 A2973 RMK AO2 SLP045 T03781006
KPHX 220251Z 27008KT 10SM CLR 40/M02 A2972 RMK AO2 SLP043 T04001017 55004
KPHX 220151Z 26012KT 10SM CLR 42/M03 A2972 RMK AO2 SLP042 T04171033
KPHX 220051Z 26013G19KT 10SM CLR 42/M02 A2972 RMK AO2 SLP041 T04221022
KPHX 212351Z 29014KT 10SM CLR 42/M03 A2974 RMK AO2 SLP047 T04221033 10433 20367 56022